createdAt,value
2022-10-28T00:00:26.965Z,96800.06
2022-10-28T00:03:12.806Z,96796.34
2022-10-28T00:06:06.817Z,96803.66
2022-10-28T00:08:52.592Z,96777.47
2022-10-28T00:11:38.586Z,96796.91
2022-10-28T00:14:24.292Z,96797.19
2022-10-28T00:17:10.119Z,96799.91
2022-10-28T00:19:55.812Z,96792.34
2022-10-28T00:22:42.130Z,96801.59
2022-10-28T00:25:27.866Z,96795.03
2022-10-28T00:28:13.507Z,96793.44
2022-10-28T00:31:05.592Z,96792.16
2022-10-28T00:33:51.998Z,96796.72
2022-10-28T00:36:41.317Z,96793.50
2022-10-28T00:39:27.654Z,96787.81
2022-10-28T00:42:13.609Z,96797.84
2022-10-28T00:45:01.654Z,96793.03
2022-10-28T00:47:59.989Z,96788.44
2022-10-28T00:50:51.911Z,96783.88
2022-10-28T00:53:39.066Z,96790.09
2022-10-28T00:59:39.810Z,96780.63
2022-10-28T01:02:26.341Z,96786.06
2022-10-28T01:05:15.235Z,96784.44
2022-10-28T01:08:02.355Z,96781.19
2022-10-28T01:11:06.261Z,96777.41
2022-10-28T01:14:21.350Z,96783.38
2022-10-28T01:17:28.365Z,96780.13
2022-10-28T01:20:29.359Z,96778.50
2022-10-28T01:23:42.997Z,96771.25
2022-10-28T01:27:02.710Z,96772.88
2022-10-28T01:30:06.873Z,96771.25
2022-10-28T01:33:05.148Z,96777.47
2022-10-28T01:35:57.076Z,96773.69
2022-10-28T01:38:58.576Z,96772.06
2022-10-28T01:41:56.383Z,96771.78
2022-10-28T01:44:58.659Z,96766.06
2022-10-28T01:48:02.674Z,96762.25
2022-10-28T01:50:56.149Z,96770.09
2022-10-28T01:53:47.340Z,96765.50
2022-10-28T01:56:38.027Z,96766.56
2022-10-28T01:59:27.643Z,96768.72
2022-10-28T02:02:21.451Z,96773.03
2022-10-28T02:05:27.234Z,96771.41
2022-10-28T02:08:34.024Z,96766.50
2022-10-28T02:11:26.100Z,96769.13
2022-10-28T02:14:38.461Z,96762.06
2022-10-28T02:17:56.439Z,96769.63
2022-10-28T02:20:57.151Z,96768.75
2022-10-28T02:24:09.714Z,96770.91
2022-10-28T02:27:09.905Z,96766.84
2022-10-28T02:30:05.425Z,96774.94
2022-10-28T02:33:03.477Z,96770.63
2022-10-28T02:36:00.710Z,96767.91
2022-10-28T02:38:54.916Z,96766.84
2022-10-28T02:41:44.746Z,96766.81
2022-10-28T02:44:35.284Z,96766.81
2022-10-28T02:47:25.548Z,96763.34
2022-10-28T02:50:16.858Z,96771.47
2022-10-28T02:53:06.797Z,96769.63
2022-10-28T02:55:55.072Z,96763.97
2022-10-28T02:58:41.918Z,96770.75
2022-10-28T03:01:31.359Z,96764.06
2022-10-28T03:04:18.860Z,96763.81
2022-10-28T03:07:05.890Z,96766.84
2022-10-28T03:09:53.327Z,96765.75
2022-10-28T03:12:40.463Z,96754.44
2022-10-28T03:15:27.766Z,96762.84
2022-10-28T03:18:14.934Z,96767.22
2022-10-28T03:21:02.144Z,96764.56
2022-10-28T03:23:49.197Z,96761.88
2022-10-28T03:26:35.659Z,96768.91
2022-10-28T03:29:22.981Z,96771.66
2022-10-28T03:32:10.308Z,96758.72
2022-10-28T03:34:57.429Z,96763.88
2022-10-28T03:37:45.121Z,96771.75
2022-10-28T03:40:32.537Z,96778.28
2022-10-28T03:43:19.857Z,96772.91
2022-10-28T03:46:06.794Z,96770.78
2022-10-28T03:48:54.240Z,96776.75
2022-10-28T03:51:41.382Z,96767.00
2022-10-28T03:54:28.677Z,96782.16
2022-10-28T03:57:15.855Z,96768.09
2022-10-28T04:00:03.128Z,96767.03
2022-10-28T04:02:58.811Z,96769.75
2022-10-28T04:05:46.366Z,96766.00
2022-10-28T04:08:33.356Z,96776.81
2022-10-28T04:11:20.601Z,96777.38
2022-10-28T04:14:07.761Z,96772.50
2022-10-28T04:16:54.876Z,96770.88
2022-10-28T04:19:42.286Z,96771.47
2022-10-28T04:22:29.826Z,96772.03
2022-10-28T04:28:06.888Z,96774.19
2022-10-28T04:30:52.563Z,96777.19
2022-10-28T04:33:38.582Z,96779.66
2022-10-28T04:36:24.603Z,96776.69
2022-10-28T04:39:10.430Z,96785.06
2022-10-28T04:41:56.580Z,96778.03
2022-10-28T04:44:42.260Z,96778.91
2022-10-28T04:47:28.085Z,96776.97
2022-10-28T04:50:14.236Z,96786.22
2022-10-28T04:53:00.427Z,96784.03
2022-10-28T04:55:46.334Z,96771.63
2022-10-28T04:58:32.056Z,96780.81
2022-10-28T05:01:17.899Z,96778.97
2022-10-28T05:04:04.055Z,96778.69
2022-10-28T05:06:50.182Z,96778.97
2022-10-28T05:09:36.325Z,96779.28
2022-10-28T05:12:22.162Z,96783.56
2022-10-28T05:15:08.607Z,96787.66
2022-10-28T05:17:55.257Z,96788.47
2022-10-28T05:20:42.180Z,96784.97
2022-10-28T05:23:30.862Z,96789.81
2022-10-28T05:26:17.060Z,96786.84
2022-10-28T05:29:03.164Z,96783.34
2022-10-28T05:31:49.028Z,96797.66
2022-10-28T05:34:35.064Z,96793.06
2022-10-28T05:37:21.155Z,96797.66
2022-10-28T05:40:08.867Z,96801.44
2022-10-28T05:42:54.957Z,96803.06
2022-10-28T05:45:41.021Z,96797.66
2022-10-28T05:48:26.783Z,96793.88
2022-10-28T05:51:12.580Z,96803.88
2022-10-28T05:53:58.383Z,96806.31
2022-10-28T05:56:44.136Z,96802.50
2022-10-28T05:59:30.031Z,96804.13
2022-10-28T06:02:15.864Z,96801.94
2022-10-28T06:05:01.724Z,96798.72
2022-10-28T06:07:47.550Z,96798.69
2022-10-28T06:10:33.929Z,96807.91
2022-10-28T06:13:18.962Z,96805.19
2022-10-28T06:16:05.069Z,96814.38
2022-10-28T06:18:50.678Z,96814.94
2022-10-28T06:21:36.499Z,96822.50
2022-10-28T06:24:22.136Z,96813.28
2022-10-28T06:27:07.835Z,96818.13
2022-10-28T06:29:53.880Z,96813.81
2022-10-28T06:32:39.619Z,96823.50
2022-10-28T06:35:25.562Z,96817.53
2022-10-28T06:38:11.546Z,96821.81
2022-10-28T06:41:00.586Z,96820.19
2022-10-28T06:43:46.715Z,96818.28
2022-10-28T06:46:34.066Z,96823.38
2022-10-28T06:49:20.023Z,96823.38
2022-10-28T06:52:05.876Z,96823.84
2022-10-28T06:54:51.951Z,96821.09
2022-10-28T06:57:37.587Z,96821.59
2022-10-28T07:00:23.584Z,96816.72
2022-10-28T07:03:10.037Z,96819.91
2022-10-28T07:05:55.846Z,96823.91
2022-10-28T07:08:41.531Z,96823.91
2022-10-28T07:11:27.261Z,96827.88
2022-10-28T07:14:13.189Z,96824.06
2022-10-28T07:16:58.938Z,96829.44
2022-10-28T07:19:44.626Z,96818.56
2022-10-28T07:22:30.259Z,96819.06
2022-10-28T07:25:16.017Z,96812.28
2022-10-28T07:28:02.200Z,96813.00
2022-10-28T07:30:48.155Z,96818.31
2022-10-28T07:33:33.835Z,96811.16
2022-10-28T07:36:19.608Z,96809.44
2022-10-28T07:39:05.582Z,96803.34
2022-10-28T07:41:51.271Z,96802.13
2022-10-28T07:44:36.990Z,96807.44
2022-10-28T07:47:22.707Z,96803.09
2022-10-28T07:50:09.423Z,96803.09
2022-10-28T07:52:55.539Z,96804.72
2022-10-28T07:55:41.991Z,96794.97
2022-10-28T07:58:28.319Z,96802.53
2022-10-28T08:01:17.068Z,96803.56
2022-10-28T08:04:05.288Z,96806.78
2022-10-28T08:06:51.439Z,96806.22
2022-10-28T08:09:37.364Z,96802.41
2022-10-28T08:12:23.510Z,96802.94
2022-10-28T08:15:10.662Z,96806.16
2022-10-28T08:17:57.015Z,96804.47
2022-10-28T08:20:43.275Z,96800.66
2022-10-28T08:23:29.465Z,96803.31
2022-10-28T08:26:16.244Z,96799.44
2022-10-28T08:29:02.432Z,96808.84
2022-10-28T08:31:48.392Z,96798.16
2022-10-28T08:34:35.095Z,96795.31
2022-10-28T08:37:23.517Z,96799.50
2022-10-28T08:40:11.796Z,96802.47
2022-10-28T08:43:07.386Z,96801.22
2022-10-28T08:46:23.664Z,96808.03
2022-10-28T08:49:12.608Z,96796.88
2022-10-28T08:52:15.748Z,96793.41
2022-10-28T08:55:07.212Z,96803.13
2022-10-28T08:57:54.277Z,96802.03
2022-10-28T09:00:47.141Z,96797.94
2022-10-28T09:03:39.405Z,96792.47
2022-10-28T09:06:25.369Z,96794.00
2022-10-28T09:09:20.700Z,96787.69
2022-10-28T09:12:23.300Z,96784.03
2022-10-28T09:15:27.671Z,96786.13
2022-10-28T09:18:22.379Z,96788.72
2022-10-28T09:21:22.305Z,96788.81
2022-10-28T09:24:26.049Z,96781.25
2022-10-28T09:27:18.636Z,96779.09
2022-10-28T09:30:20.348Z,96778.41
2022-10-28T09:33:30.013Z,96769.38
2022-10-28T09:36:24.240Z,96764.75
2022-10-28T09:39:14.046Z,96765.28
2022-10-28T09:42:01.185Z,96761.31
2022-10-28T09:45:05.610Z,96750.56
2022-10-28T09:48:03.285Z,96754.78
2022-10-28T09:50:52.339Z,96743.53
2022-10-28T09:53:43.467Z,96746.06
2022-10-28T09:56:30.068Z,96742.63
2022-10-28T09:59:16.024Z,96744.22
2022-10-28T10:02:03.967Z,96740.75
2022-10-28T10:04:49.953Z,96738.75
2022-10-28T10:07:38.893Z,96736.69
2022-10-28T10:10:44.805Z,96733.41
2022-10-28T10:13:36.079Z,96728.28
2022-10-28T10:16:37.831Z,96731.69
2022-10-28T10:19:23.602Z,96718.19
2022-10-28T10:22:09.455Z,96722.81
2022-10-28T10:24:55.197Z,96714.00
2022-10-28T10:27:41.019Z,96717.00
2022-10-28T10:30:30.542Z,96711.31
2022-10-28T10:33:20.209Z,96710.44
2022-10-28T10:36:11.913Z,96711.34
2022-10-28T10:38:59.868Z,96703.81
2022-10-28T10:41:47.023Z,96696.34
2022-10-28T10:45:01.171Z,96690.56
2022-10-28T10:47:47.006Z,96697.97
2022-10-28T10:50:33.074Z,96695.78
2022-10-28T10:53:20.869Z,96696.25
2022-10-28T10:56:11.205Z,96689.66
2022-10-28T10:59:01.570Z,96687.09
2022-10-28T11:01:48.122Z,96682.88
2022-10-28T11:05:13.430Z,96682.59
2022-10-28T11:08:04.846Z,96675.25
2022-10-28T11:11:14.911Z,96679.63
2022-10-28T11:14:13.761Z,96679.00
2022-10-28T11:17:01.814Z,96674.41
2022-10-28T11:19:47.444Z,96664.94
2022-10-28T11:22:51.418Z,96663.34
2022-10-28T11:25:39.825Z,96662.63
2022-10-28T11:28:54.256Z,96669.25
2022-10-28T11:31:48.549Z,96663.13
2022-10-28T11:35:48.167Z,96658.63
2022-10-28T11:38:59.465Z,96658.09
2022-10-28T11:42:15.322Z,96651.63
2022-10-28T11:45:23.251Z,96648.44
2022-10-28T11:48:14.307Z,96643.59
2022-10-28T11:51:15.149Z,96638.81
2022-10-28T11:54:04.531Z,96636.59
2022-10-28T11:56:54.202Z,96631.97
2022-10-28T11:59:54.507Z,96625.03
2022-10-28T12:02:59.032Z,96623.34
2022-10-28T12:05:51.456Z,96626.41
2022-10-28T12:08:58.160Z,96620.09
2022-10-28T12:15:40.493Z,96606.38
2022-10-28T12:18:50.490Z,96603.50
2022-10-28T12:21:36.992Z,96600.00
2022-10-28T12:24:24.332Z,96596.44
2022-10-28T12:27:44.090Z,96589.25
2022-10-28T12:30:32.560Z,96589.34
2022-10-28T12:33:29.399Z,96583.81
2022-10-28T12:36:19.284Z,96577.75
2022-10-28T12:39:25.145Z,96577.28
2022-10-28T12:42:35.899Z,96574.59
2022-10-28T12:45:22.840Z,96572.25
2022-10-28T12:48:34.521Z,96565.81
2022-10-28T12:51:40.483Z,96569.09
2022-10-28T12:54:38.592Z,96561.19
2022-10-28T12:57:25.180Z,96556.50
2022-10-28T13:00:24.698Z,96557.16
2022-10-28T13:03:14.555Z,96555.00
2022-10-28T13:06:45.061Z,96558.38
2022-10-28T13:10:06.651Z,96556.72
2022-10-28T13:12:40.130Z,96555.03
2022-10-28T13:15:09.925Z,96554.59
2022-10-28T13:18:25.613Z,96554.25
2022-10-28T13:21:25.297Z,96547.91
2022-10-28T13:24:26.401Z,96550.38
2022-10-28T13:26:54.223Z,96555.56
2022-10-28T13:29:27.936Z,96550.88
2022-10-28T13:31:55.617Z,96547.25
2022-10-28T13:34:33.385Z,96551.50
2022-10-28T13:37:03.512Z,96543.72
2022-10-28T13:39:43.874Z,96547.88
2022-10-28T13:42:13.367Z,96539.59
2022-10-28T13:44:56.171Z,96541.00
2022-10-28T13:47:33.890Z,96537.53
2022-10-28T13:50:10.952Z,96542.13
2022-10-28T13:52:45.707Z,96540.44
2022-10-28T13:55:26.613Z,96533.56
2022-10-28T13:58:32.659Z,96534.81
2022-10-28T14:01:45.590Z,96539.97
2022-10-28T14:04:45.605Z,96536.69
2022-10-28T14:07:21.877Z,96538.50
2022-10-28T14:09:52.562Z,96545.31
2022-10-28T14:12:31.047Z,96537.19
2022-10-28T14:15:15.978Z,96538.53
2022-10-28T14:18:10.590Z,96535.38
2022-10-28T14:20:51.677Z,96542.88
2022-10-28T14:23:22.054Z,96531.84
2022-10-28T14:25:53.659Z,96533.88
2022-10-28T14:28:27.231Z,96531.44
2022-10-28T14:31:12.479Z,96534.09
2022-10-28T14:33:43.355Z,96531.13
2022-10-28T14:36:22.535Z,96532.50
2022-10-28T14:38:53.200Z,96540.13
2022-10-28T14:41:39.184Z,96533.53
2022-10-28T14:44:39.649Z,96532.41
2022-10-28T14:47:44.028Z,96540.00
2022-10-28T14:50:23.781Z,96533.66
2022-10-28T14:52:52.649Z,96534.50
2022-10-28T14:55:32.799Z,96531.81
2022-10-28T14:58:36.971Z,96531.38
2022-10-28T15:01:18.712Z,96528.63
2022-10-28T15:03:58.528Z,96534.16
2022-10-28T15:06:41.824Z,96530.97
2022-10-28T15:09:28.932Z,96536.94
2022-10-28T15:11:59.872Z,96533.06
2022-10-28T15:14:40.284Z,96536.22
2022-10-28T15:17:31.152Z,96536.66
2022-10-28T15:20:33.415Z,96535.47
2022-10-28T15:23:19.493Z,96534.72
2022-10-28T15:26:11.640Z,96532.38
2022-10-28T15:28:40.280Z,96530.41
2022-10-28T15:31:08.050Z,96524.47
2022-10-28T15:33:40.621Z,96524.22
2022-10-28T15:36:23.199Z,96527.75
2022-10-28T15:38:52.103Z,96527.38
2022-10-28T15:41:24.004Z,96530.19
2022-10-28T15:44:02.081Z,96530.97
2022-10-28T15:46:31.510Z,96533.78
2022-10-28T15:49:05.795Z,96534.28
2022-10-28T15:51:33.453Z,96535.13
2022-10-28T15:54:18.896Z,96537.91
2022-10-28T15:56:55.716Z,96536.31
2022-10-28T15:59:25.812Z,96546.66
2022-10-28T16:01:58.682Z,96545.63
2022-10-28T16:04:26.252Z,96541.78
2022-10-28T16:06:57.557Z,96541.44
2022-10-28T16:09:48.299Z,96546.56
2022-10-28T16:12:18.943Z,96544.28
2022-10-28T16:14:53.536Z,96553.44
2022-10-28T16:17:29.754Z,96547.13
2022-10-28T16:19:58.009Z,96548.84
2022-10-28T16:22:27.831Z,96542.88
2022-10-28T16:24:55.746Z,96553.16
2022-10-28T16:27:30.517Z,96556.31
2022-10-28T16:29:58.480Z,96558.38
2022-10-28T16:32:29.531Z,96556.06
2022-10-28T16:34:58.927Z,96559.22
2022-10-28T16:37:29.303Z,96569.88
2022-10-28T16:39:57.895Z,96565.94
2022-10-28T16:42:25.743Z,96569.09
2022-10-28T16:44:53.393Z,96583.34
2022-10-28T16:47:23.054Z,96582.94
2022-10-28T16:49:54.286Z,96585.75
2022-10-28T16:52:29.250Z,96577.13
2022-10-28T16:55:00.957Z,96585.25
2022-10-28T16:57:28.531Z,96587.69
2022-10-28T16:59:56.205Z,96599.50
2022-10-28T17:02:31.709Z,96596.00
2022-10-28T17:04:59.918Z,96595.69
2022-10-28T17:07:28.373Z,96600.88
2022-10-28T17:09:57.012Z,96600.59
2022-10-28T17:12:26.312Z,96604.19
2022-10-28T17:14:55.388Z,96606.13
2022-10-28T17:17:22.832Z,96605.03
2022-10-28T17:19:50.497Z,96602.31
2022-10-28T17:22:17.992Z,96607.97
2022-10-28T17:24:46.192Z,96615.53
2022-10-28T17:27:13.842Z,96610.09
2022-10-28T17:29:41.633Z,96610.91
2022-10-28T17:32:09.284Z,96623.59
2022-10-28T17:34:37.254Z,96614.56
2022-10-28T17:37:05.197Z,96626.16
2022-10-28T17:39:32.804Z,96631.28
2022-10-28T17:42:22.356Z,96631.00
2022-10-28T17:44:49.833Z,96629.88
2022-10-28T17:47:17.506Z,96632.44
2022-10-28T17:49:45.245Z,96625.53
2022-10-28T17:52:13.426Z,96628.72
2022-10-28T17:54:41.029Z,96627.28
2022-10-28T17:57:09.651Z,96625.50
2022-10-28T17:59:37.342Z,96622.78
2022-10-28T18:02:05.297Z,96624.84
2022-10-28T18:04:35.058Z,96630.16
2022-10-28T18:07:02.586Z,96623.53
2022-10-28T18:09:31.821Z,96630.59
2022-10-28T18:12:02.061Z,96628.03
2022-10-28T18:14:29.934Z,96637.34
2022-10-28T18:16:57.520Z,96643.41
2022-10-28T18:19:25.414Z,96632.00
2022-10-28T18:21:52.911Z,96632.16
2022-10-28T18:24:23.372Z,96637.13
2022-10-28T18:26:54.940Z,96631.16
2022-10-28T18:29:22.538Z,96630.34
2022-10-28T18:31:50.046Z,96633.56
2022-10-28T18:34:17.855Z,96625.38
2022-10-28T18:36:45.417Z,96636.28
2022-10-28T18:39:14.055Z,96638.03
2022-10-28T18:41:42.929Z,96640.25
2022-10-28T18:44:13.155Z,96645.88
2022-10-28T18:46:41.225Z,96643.28
2022-10-28T18:49:08.931Z,96647.75
2022-10-28T18:51:36.613Z,96646.28
2022-10-28T18:54:04.515Z,96640.47
2022-10-28T18:56:34.208Z,96652.00
2022-10-28T18:59:03.448Z,96653.78
2022-10-28T19:01:32.212Z,96653.59
2022-10-28T19:04:02.235Z,96664.28
2022-10-28T19:06:34.990Z,96664.09
2022-10-28T19:09:04.868Z,96663.13
2022-10-28T19:11:33.664Z,96671.63
2022-10-28T19:14:03.771Z,96666.78
2022-10-28T19:16:33.806Z,96671.25
2022-10-28T19:19:02.961Z,96662.59
2022-10-28T19:21:31.106Z,96670.25
2022-10-28T19:23:58.700Z,96672.50
2022-10-28T19:26:27.914Z,96673.91
2022-10-28T19:28:55.414Z,96680.81
2022-10-28T19:31:25.912Z,96675.97
2022-10-28T19:33:54.271Z,96685.84
2022-10-28T19:36:24.288Z,96679.72
2022-10-28T19:38:55.696Z,96681.44
2022-10-28T19:41:28.081Z,96683.66
2022-10-28T19:43:58.469Z,96681.88
2022-10-28T19:46:29.431Z,96693.38
2022-10-28T19:48:58.711Z,96705.38
2022-10-28T19:51:31.446Z,96699.75
2022-10-28T19:54:00.626Z,96701.66
2022-10-28T19:56:30.064Z,96707.75
2022-10-28T19:58:59.607Z,96713.78
2022-10-28T20:01:29.704Z,96708.66
2022-10-28T20:03:57.789Z,96700.28
2022-10-28T20:06:27.445Z,96700.41
2022-10-28T20:08:59.160Z,96702.94
2022-10-28T20:11:29.113Z,96708.66
2022-10-28T20:14:01.248Z,96707.69
2022-10-28T20:16:29.332Z,96705.56
2022-10-28T20:18:58.186Z,96709.69
2022-10-28T20:21:28.528Z,96709.03
2022-10-28T20:23:57.195Z,96712.84
2022-10-28T20:26:29.551Z,96711.84
2022-10-28T20:28:58.178Z,96699.97
2022-10-28T20:31:27.824Z,96711.97
2022-10-28T20:34:00.703Z,96710.44
2022-10-28T20:36:30.293Z,96723.75
2022-10-28T20:39:00.961Z,96725.97
2022-10-28T20:41:33.225Z,96713.78
2022-10-28T20:44:01.642Z,96712.47
2022-10-28T20:46:31.675Z,96708.44
2022-10-28T20:49:00.846Z,96709.03
2022-10-28T20:51:30.379Z,96705.81
2022-10-28T20:53:59.598Z,96716.22
2022-10-28T20:56:33.021Z,96706.22
2022-10-28T20:59:00.722Z,96711.47
2022-10-28T21:01:33.038Z,96706.63
2022-10-28T21:04:02.914Z,96709.41
2022-10-28T21:06:31.079Z,96706.19
2022-10-28T21:08:59.722Z,96717.69
2022-10-28T21:11:27.962Z,96718.28
2022-10-28T21:13:57.734Z,96729.75
2022-10-28T21:16:26.347Z,96715.13
2022-10-28T21:18:54.530Z,96723.09
2022-10-28T21:21:23.127Z,96713.41
2022-10-28T21:23:51.999Z,96714.84
2022-10-28T21:26:19.757Z,96721.97
2022-10-28T21:28:52.084Z,96716.63
2022-10-28T21:31:20.921Z,96721.06
2022-10-28T21:36:22.182Z,96720.72
2022-10-28T21:38:53.606Z,96720.78
2022-10-28T21:41:21.383Z,96722.53
2022-10-28T21:43:50.520Z,96717.16
2022-10-28T21:46:19.004Z,96718.34
2022-10-28T21:48:47.014Z,96721.66
2022-10-28T21:51:16.145Z,96717.09
2022-10-28T21:53:44.564Z,96713.69
2022-10-28T21:56:17.533Z,96724.31
2022-10-28T21:58:47.718Z,96726.84
2022-10-28T22:01:20.853Z,96721.47
2022-10-28T22:03:51.084Z,96719.34
2022-10-28T22:06:18.738Z,96709.97
2022-10-28T22:08:46.925Z,96710.78
2022-10-28T22:11:20.410Z,96716.78
2022-10-28T22:13:48.420Z,96718.75
2022-10-28T22:16:17.840Z,96720.94
2022-10-28T22:18:45.612Z,96723.94
2022-10-28T22:21:15.529Z,96719.09
2022-10-28T22:23:43.349Z,96719.69
2022-10-28T22:26:13.274Z,96716.47
2022-10-28T22:28:40.793Z,96717.03
2022-10-28T22:31:13.751Z,96725.47
2022-10-28T22:33:41.540Z,96716.63
2022-10-28T22:36:12.220Z,96720.44
2022-10-28T22:38:39.921Z,96713.97
2022-10-28T22:41:08.253Z,96718.88
2022-10-28T22:43:35.821Z,96718.16
2022-10-28T22:46:04.190Z,96714.09
2022-10-28T22:48:32.271Z,96693.13
2022-10-28T22:51:00.386Z,96703.63
2022-10-28T22:53:28.031Z,96698.78
2022-10-28T22:55:56.222Z,96699.63
2022-10-28T22:58:24.739Z,96695.31
2022-10-28T23:00:52.340Z,96705.94
2022-10-28T23:03:19.838Z,96701.91
2022-10-28T23:05:47.275Z,96693.81
2022-10-28T23:08:15.883Z,96699.25
2022-10-28T23:10:43.350Z,96698.75
2022-10-28T23:13:12.301Z,96697.41
2022-10-28T23:15:39.829Z,96689.56
2022-10-28T23:18:07.517Z,96689.06
2022-10-28T23:20:35.447Z,96695.56
2022-10-28T23:23:03.266Z,96690.75
2022-10-28T23:25:30.790Z,96679.66
2022-10-28T23:27:59.466Z,96690.28
2022-10-28T23:30:26.908Z,96683.84
2022-10-28T23:32:57.318Z,96686.59
2022-10-28T23:35:25.248Z,96676.38
2022-10-28T23:37:54.050Z,96690.50
2022-10-28T23:40:21.787Z,96687.84
2022-10-28T23:42:49.338Z,96689.25
2022-10-28T23:45:16.889Z,96681.97
2022-10-28T23:47:44.505Z,96680.63
2022-10-28T23:50:14.879Z,96681.72
2022-10-28T23:52:42.510Z,96684.72
2022-10-28T23:55:10.252Z,96678.78
2022-10-28T23:57:41.209Z,96682.84
